Time;durP1;ratioP1;P1;durP2;ratioP2;P2;SDS_P1;SDS_P2;PMS_P1;PMS_P2;Temp;Humidity;BMP_temperature;BMP_pressure;BME280_temperature;BME280_humidity;BME280_pressure;Samples;Min_cycle;Max_cycle;Signal;HPM_P1;HPM_P2
2022/01/31 00:00:14;;;;;;;4.72;2.40;;;21.80;40.90;;;;;;5021473;28;43500;-62
2022/01/31 00:02:44;;;;;;;5.05;2.95;;;21.80;40.90;;;;;;5023873;28;43550;-63
2022/01/31 00:05:12;;;;;;;4.35;2.53;;;21.80;40.90;;;;;;5021675;28;43873;-62
2022/01/31 00:07:40;;;;;;;4.70;2.20;;;21.80;40.90;;;;;;5021317;28;44096;-62
2022/01/31 00:10:10;;;;;;;5.80;2.60;;;21.80;40.90;;;;;;5019925;28;43440;-62
2022/01/31 00:12:50;;;;;;;4.50;2.77;;;21.80;41.00;;;;;;5014336;28;43520;-63
2022/01/31 00:15:18;;;;;;;3.83;2.05;;;21.70;40.90;;;;;;5017448;28;43792;-63
2022/01/31 00:17:45;;;;;;;4.70;2.60;;;21.80;41.00;;;;;;5014406;28;43691;-62
2022/01/31 00:20:14;;;;;;;4.70;2.60;;;21.70;41.00;;;;;;5012780;28;43522;-63
2022/01/31 00:22:41;;;;;;;4.25;2.50;;;21.70;40.90;;;;;;5009299;28;44104;-62
2022/01/31 00:25:09;;;;;;;3.97;2.53;;;21.70;40.90;;;;;;5005630;28;44650;-62
2022/01/31 00:27:37;;;;;;;3.67;2.20;;;21.70;41.00;;;;;;5020938;28;43512;-64
2022/01/31 00:30:07;;;;;;;4.13;2.25;;;21.70;41.30;;;;;;5020772;28;43509;-63
2022/01/31 00:32:35;;;;;;;4.22;2.28;;;21.70;41.00;;;;;;5021589;28;43676;-62
2022/01/31 00:35:03;;;;;;;4.65;2.28;;;21.70;41.00;;;;;;5020790;28;44032;-63
2022/01/31 00:37:31;;;;;;;3.72;2.50;;;21.70;41.00;;;;;;5020684;28;43412;-63
2022/01/31 00:39:59;;;;;;;4.30;2.25;;;21.70;41.10;;;;;;5012185;28;43420;-63
2022/01/31 00:42:28;;;;;;;4.85;2.45;;;21.60;41.00;;;;;;5016188;28;43526;-62
2022/01/31 00:45:09;;;;;;;4.13;2.40;;;21.60;41.00;;;;;;5015430;28;44688;-63
2022/01/31 00:47:40;;;;;;;3.55;2.10;;;21.60;41.00;;;;;;5020760;28;43650;-62
2022/01/31 00:50:10;;;;;;;4.78;2.97;;;21.60;41.00;;;;;;5021450;28;43433;-62
2022/01/31 00:52:40;;;;;;;3.85;2.30;;;21.60;41.10;;;;;;5020623;28;43492;-63
2022/01/31 00:55:10;;;;;;;4.43;2.40;;;21.60;41.10;;;;;;5019779;28;43791;-64
2022/01/31 00:57:37;;;;;;;3.97;2.55;;;21.60;41.10;;;;;;5020422;28;43556;-63
2022/01/31 01:00:06;;;;;;;3.55;1.92;;;21.60;41.10;;;;;;5020961;28;43485;-63
2022/01/31 01:02:34;;;;;;;4.38;2.22;;;21.60;41.10;;;;;;5004235;28;43719;-62
2022/01/31 01:05:02;;;;;;;5.15;2.58;;;21.60;41.10;;;;;;5007022;28;43804;-63
2022/01/31 01:07:30;;;;;;;4.43;2.15;;;21.50;41.10;;;;;;5023454;28;43448;-62
2022/01/31 01:09:58;;;;;;;4.25;2.35;;;21.50;41.10;;;;;;5020571;28;43476;-64
2022/01/31 01:12:25;;;;;;;2.83;1.90;;;21.50;41.10;;;;;;5020465;28;43497;-64
2022/01/31 01:14:53;;;;;;;5.97;2.55;;;21.50;41.10;;;;;;5021948;28;43896;-63
2022/01/31 01:17:20;;;;;;;3.78;2.28;;;21.50;41.10;;;;;;5004468;28;44272;-62
2022/01/31 01:19:48;;;;;;;3.90;2.28;;;21.50;41.10;;;;;;5007511;28;43476;-64
2022/01/31 01:22:16;;;;;;;4.07;2.28;;;21.50;41.10;;;;;;5023357;28;43787;-64
2022/01/31 01:24:44;;;;;;;3.67;2.20;;;21.40;41.10;;;;;;5011703;28;44886;-63
2022/01/31 01:27:14;;;;;;;3.13;1.67;;;21.40;41.10;;;;;;5005240;28;43965;-64
2022/01/31 01:29:42;;;;;;;3.67;2.20;;;21.40;41.10;;;;;;5007058;28;43571;-63
2022/01/31 01:32:10;;;;;;;3.88;2.28;;;21.40;41.10;;;;;;5022705;28;43557;-63
2022/01/31 01:34:38;;;;;;;6.32;2.33;;;21.40;41.20;;;;;;5004512;28;44948;-64
2022/01/31 01:37:06;;;;;;;4.80;2.30;;;21.40;41.20;;;;;;5023974;28;43501;-64
2022/01/31 01:39:34;;;;;;;4.28;2.40;;;21.40;41.20;;;;;;4990538;28;43513;-63
2022/01/31 01:42:02;;;;;;;4.80;2.40;;;21.40;41.20;;;;;;5004992;28;43651;-62
2022/01/31 01:44:47;;;;;;;4.05;2.10;;;21.40;41.20;;;;;;5006668;28;44053;-63
2022/01/31 01:47:19;;;;;;;2.90;1.90;;;21.30;41.20;;;;;;5004783;28;43559;-62
2022/01/31 01:49:49;;;;;;;3.58;2.20;;;21.30;41.20;;;;;;5005183;28;43504;-64
2022/01/31 01:52:20;;;;;;;5.53;2.67;;;21.30;41.10;;;;;;5005520;28;43542;-63
2022/01/31 01:54:49;;;;;;;4.88;2.05;;;21.30;41.20;;;;;;5023539;28;44290;-62
2022/01/31 01:57:22;;;;;;;4.07;2.20;;;21.30;41.10;;;;;;5003964;28;43812;-63
2022/01/31 01:59:55;;;;;;;5.15;2.40;;;21.20;41.10;;;;;;5002169;28;43489;-63
2022/01/31 02:02:35;;;;;;;3.67;1.98;;;21.30;41.20;;;;;;5014499;28;43484;-64
2022/01/31 02:05:05;;;;;;;2.60;2.10;;;21.20;41.10;;;;;;5003449;28;44027;-64
2022/01/31 02:07:40;;;;;;;3.92;2.20;;;21.20;41.20;;;;;;4999914;28;43503;-64
2022/01/31 02:10:11;;;;;;;3.63;2.00;;;21.20;41.20;;;;;;5023541;28;43404;-63
2022/01/31 02:13:08;;;;;;;4.50;2.38;;;21.20;41.20;;;;;;5002251;28;43434;-64
2022/01/31 02:16:17;;;;;;;2.92;1.88;;;21.20;41.20;;;;;;4912917;28;43810;-64
2022/01/31 02:18:54;;;;;;;3.25;2.20;;;21.10;41.20;;;;;;4916887;28;43451;-63
2022/01/31 02:21:33;;;;;;;3.80;2.25;;;21.10;41.40;;;;;;4971304;28;43590;-63
2022/01/31 02:24:12;;;;;;;2.95;1.98;;;21.10;41.30;;;;;;5021492;28;43492;-63
2022/01/31 02:26:48;;;;;;;3.70;2.47;;;21.10;41.30;;;;;;5003275;28;43806;-63
2022/01/31 02:29:28;;;;;;;3.08;2.10;;;21.10;41.30;;;;;;5003713;28;44764;-63
2022/01/31 02:31:56;;;;;;;2.72;1.90;;;21.10;41.30;;;;;;5004334;28;43500;-64
2022/01/31 02:34:23;;;;;;;3.17;2.05;;;21.10;41.30;;;;;;5022782;28;43520;-64
2022/01/31 02:36:51;;;;;;;2.83;1.98;;;21.00;41.20;;;;;;5022983;28;44061;-64
2022/01/31 02:39:18;;;;;;;2.92;2.03;;;21.00;41.20;;;;;;5020785;28;43670;-65
2022/01/31 02:41:46;;;;;;;2.40;2.13;;;21.00;41.30;;;;;;4999379;28;43560;-63
2022/01/31 02:44:15;;;;;;;3.05;1.90;;;21.00;41.30;;;;;;5020313;28;43499;-64
2022/01/31 02:47:09;;;;;;;2.45;1.70;;;21.00;41.30;;;;;;5018766;28;44780;-63
2022/01/31 02:49:47;;;;;;;1.70;1.48;;;20.90;41.20;;;;;;5004544;28;44299;-63
2022/01/31 02:52:16;;;;;;;2.38;1.50;;;20.90;41.30;;;;;;5003168;28;43487;-63
2022/01/31 02:54:45;;;;;;;1.63;1.52;;;20.90;41.30;;;;;;5002711;28;43508;-64
2022/01/31 02:57:14;;;;;;;2.97;1.80;;;20.90;41.40;;;;;;5000364;28;44226;-64
2022/01/31 02:59:41;;;;;;;2.38;1.63;;;20.90;41.40;;;;;;5002644;28;43620;-63
2022/01/31 03:02:09;;;;;;;2.42;1.80;;;20.90;41.40;;;;;;5001994;28;43532;-63
2022/01/31 03:04:36;;;;;;;2.97;1.73;;;20.90;41.40;;;;;;5005413;28;44111;-64
2022/01/31 03:07:10;;;;;;;2.92;1.83;;;20.90;41.50;;;;;;4983619;28;44960;-64
2022/01/31 03:09:38;;;;;;;1.60;1.40;;;20.80;41.50;;;;;;5001095;28;43550;-63
2022/01/31 03:12:09;;;;;;;1.83;1.52;;;20.90;41.50;;;;;;5003349;28;43424;-62
2022/01/31 03:14:45;;;;;;;2.38;1.63;;;20.90;41.50;;;;;;5003840;28;43528;-63
2022/01/31 03:17:31;;;;;;;1.63;1.50;;;20.90;41.50;;;;;;5019099;28;43590;-63
2022/01/31 03:19:59;;;;;;;1.52;1.42;;;20.90;41.50;;;;;;5021811;28;43540;-62
2022/01/31 03:22:26;;;;;;;1.55;1.40;;;20.90;41.50;;;;;;5004927;28;43448;-64
2022/01/31 03:24:53;;;;;;;2.55;1.50;;;20.80;41.50;;;;;;5007666;28;43536;-63
2022/01/31 03:27:21;;;;;;;1.48;1.38;;;20.80;41.50;;;;;;5004818;28;44976;-63
2022/01/31 03:29:48;;;;;;;2.08;1.58;;;20.80;41.50;;;;;;5016647;28;44004;-64
2022/01/31 03:32:16;;;;;;;2.20;1.60;;;20.80;41.50;;;;;;5019046;28;43511;-64
2022/01/31 03:34:43;;;;;;;1.77;1.23;;;20.80;41.50;;;;;;4998493;28;43522;-63
2022/01/31 03:37:11;;;;;;;1.98;1.50;;;20.80;41.60;;;;;;5024042;28;44694;-64
2022/01/31 03:39:43;;;;;;;1.45;1.35;;;20.80;41.60;;;;;;5016320;28;43481;-63
2022/01/31 03:42:15;;;;;;;1.65;1.33;;;20.70;41.60;;;;;;5001731;28;43540;-64
2022/01/31 03:44:43;;;;;;;1.70;1.50;;;20.70;41.50;;;;;;4994620;28;43556;-63
2022/01/31 03:47:11;;;;;;;1.30;1.20;;;20.70;41.50;;;;;;5000370;28;44997;-64
2022/01/31 03:49:39;;;;;;;1.65;1.13;;;20.70;41.50;;;;;;5002638;28;43915;-63
2022/01/31 03:52:10;;;;;;;1.85;1.60;;;20.70;41.60;;;;;;5000438;28;43437;-64
2022/01/31 03:54:46;;;;;;;2.15;1.30;;;20.70;41.60;;;;;;4998292;28;43950;-63
2022/01/31 03:57:14;;;;;;;1.77;1.30;;;20.70;41.60;;;;;;5002967;28;44923;-64
2022/01/31 04:00:12;;;;;;;1.45;1.15;;;20.70;41.60;;;;;;4989816;28;43520;-64
2022/01/31 04:02:45;;;;;;;1.42;1.30;;;20.70;41.60;;;;;;5004034;28;43507;-64
2022/01/31 04:05:13;;;;;;;1.67;1.25;;;20.70;41.60;;;;;;4998690;28;43616;-62
2022/01/31 04:07:42;;;;;;;1.98;1.20;;;20.60;41.60;;;;;;5000765;28;44039;-63
2022/01/31 04:10:10;;;;;;;1.77;1.40;;;20.60;41.60;;;;;;4998678;28;44163;-63
2022/01/31 04:12:38;;;;;;;2.05;1.50;;;20.60;41.60;;;;;;5005007;28;43462;-63
2022/01/31 04:15:05;;;;;;;2.20;1.45;;;20.60;41.60;;;;;;4995777;28;43710;-63
2022/01/31 04:17:33;;;;;;;2.13;1.40;;;20.60;41.60;;;;;;5002340;28;44027;-64
2022/01/31 04:20:01;;;;;;;2.38;1.88;;;20.60;41.40;;;;;;4998088;28;44142;-62
2022/01/31 04:22:33;;;;;;;3.08;1.70;;;20.60;41.50;;;;;;4999843;28;43452;-64
2022/01/31 04:25:03;;;;;;;2.13;1.70;;;20.50;41.50;;;;;;5001152;28;43573;-63
2022/01/31 04:27:43;;;;;;;3.10;1.60;;;20.50;42.20;;;;;;5001762;28;43812;-64
2022/01/31 04:30:13;;;;;;;3.92;1.30;;;20.60;41.60;;;;;;5001209;28;43441;-64
2022/01/31 04:32:41;;;;;;;2.60;1.60;;;20.50;41.60;;;;;;5001592;28;43432;-64
2022/01/31 04:35:08;;;;;;;2.80;1.60;;;20.50;41.60;;;;;;4999778;28;43635;-64
2022/01/31 04:37:36;;;;;;;3.35;1.77;;;20.50;41.60;;;;;;5002645;28;44961;-63
2022/01/31 04:40:10;;;;;;;3.15;1.65;;;20.50;41.60;;;;;;5000463;28;43405;-64
2022/01/31 04:42:38;;;;;;;2.70;1.73;;;20.50;41.60;;;;;;4999984;28;43495;-65
2022/01/31 04:45:06;;;;;;;3.20;1.50;;;20.50;41.70;;;;;;5002789;28;43579;-64
2022/01/31 04:47:34;;;;;;;4.18;1.92;;;20.40;41.60;;;;;;5000638;28;44997;-63
2022/01/31 04:50:01;;;;;;;3.35;1.90;;;20.40;41.60;;;;;;4996747;28;43851;-64
2022/01/31 04:52:29;;;;;;;3.67;1.80;;;20.40;41.60;;;;;;5001455;28;43393;-63
2022/01/31 04:54:57;;;;;;;4.07;1.85;;;20.40;41.60;;;;;;5002867;28;43606;-64
2022/01/31 04:57:24;;;;;;;3.97;1.75;;;20.40;41.70;;;;;;4995220;28;46052;-63
2022/01/31 04:59:52;;;;;;;4.57;1.70;;;20.40;41.60;;;;;;5002056;28;44030;-63
2022/01/31 05:02:19;;;;;;;4.70;2.05;;;20.40;41.60;;;;;;5003306;28;43471;-63
2022/01/31 05:04:47;;;;;;;3.13;1.73;;;20.40;41.70;;;;;;5003727;28;43650;-64
2022/01/31 05:07:14;;;;;;;3.42;1.80;;;20.40;41.70;;;;;;5002471;28;45030;-62
2022/01/31 05:09:43;;;;;;;3.63;1.90;;;20.40;41.70;;;;;;5002267;28;43474;-62
2022/01/31 05:12:11;;;;;;;3.72;1.80;;;20.40;41.70;;;;;;4998596;28;43427;-62
2022/01/31 05:14:38;;;;;;;4.00;1.95;;;20.30;41.60;;;;;;5002083;28;43576;-65
2022/01/31 05:17:06;;;;;;;3.53;1.90;;;20.40;41.60;;;;;;5001061;28;44975;-62
2022/01/31 05:19:34;;;;;;;4.35;1.98;;;20.40;42.20;;;;;;4995280;28;44010;-63
2022/01/31 05:22:01;;;;;;;3.83;2.00;;;20.30;41.50;;;;;;5002387;28;43504;-64
2022/01/31 05:24:29;;;;;;;5.28;2.22;;;20.40;41.60;;;;;;5002032;28;43631;-62
2022/01/31 05:26:56;;;;;;;3.65;1.83;;;20.30;41.60;;;;;;5000618;28;44051;-62
2022/01/31 05:29:23;;;;;;;3.63;1.75;;;20.30;41.60;;;;;;5001218;28;43963;-64
2022/01/31 05:31:52;;;;;;;3.13;1.70;;;20.30;41.60;;;;;;5002512;28;43481;-64
2022/01/31 05:34:23;;;;;;;4.97;1.80;;;20.30;41.60;;;;;;5000416;28;43779;-63
2022/01/31 05:36:56;;;;;;;3.45;1.73;;;20.30;41.70;;;;;;5001794;28;44031;-62
2022/01/31 05:39:24;;;;;;;3.72;1.67;;;20.20;41.60;;;;;;4997778;28;43483;-64
2022/01/31 05:41:53;;;;;;;3.10;1.67;;;20.20;41.60;;;;;;5014616;28;43472;-64
2022/01/31 05:44:22;;;;;;;3.90;2.10;;;20.20;41.60;;;;;;5016517;28;43662;-63
2022/01/31 05:46:50;;;;;;;4.05;2.22;;;20.20;41.70;;;;;;5016799;28;44199;-63
2022/01/31 05:49:18;;;;;;;3.67;1.85;;;20.20;41.60;;;;;;5019334;28;43484;-63
2022/01/31 05:51:54;;;;;;;3.20;1.75;;;20.20;41.60;;;;;;5006373;28;43468;-62
2022/01/31 05:54:21;;;;;;;2.95;1.88;;;20.20;41.60;;;;;;5021376;28;43598;-64
2022/01/31 05:56:49;;;;;;;4.10;1.75;;;20.20;41.70;;;;;;5015902;28;45096;-64
2022/01/31 05:59:17;;;;;;;3.20;1.80;;;20.20;41.70;;;;;;5021702;28;44019;-63
2022/01/31 06:01:45;;;;;;;3.80;1.88;;;20.20;42.40;;;;;;5016825;28;43555;-64
2022/01/31 06:04:12;;;;;;;5.18;1.83;;;20.20;41.80;;;;;;5023573;28;43566;-63
2022/01/31 06:06:40;;;;;;;3.47;1.88;;;20.20;41.70;;;;;;5020565;28;43689;-62
2022/01/31 06:09:10;;;;;;;4.60;2.03;;;20.20;41.70;;;;;;5008001;28;43469;-62
2022/01/31 06:11:38;;;;;;;3.80;1.80;;;20.10;41.70;;;;;;5021433;28;43452;-63
2022/01/31 06:14:10;;;;;;;4.43;2.13;;;20.10;41.70;;;;;;5017401;28;44148;-62
2022/01/31 06:16:37;;;;;;;3.38;1.80;;;20.10;41.80;;;;;;5020053;28;43818;-64
2022/01/31 06:19:05;;;;;;;4.10;2.00;;;20.10;41.80;;;;;;5015185;28;43775;-63
2022/01/31 06:21:32;;;;;;;4.03;1.80;;;20.10;41.80;;;;;;5020393;28;43579;-63
2022/01/31 06:24:00;;;;;;;3.75;2.03;;;20.10;41.80;;;;;;5018371;28;43410;-64
2022/01/31 06:26:29;;;;;;;3.60;1.80;;;20.10;41.80;;;;;;5004611;28;43958;-62
2022/01/31 06:29:08;;;;;;;3.75;1.90;;;20.10;41.80;;;;;;5004096;28;43453;-64
2022/01/31 06:31:42;;;;;;;4.88;2.08;;;20.10;41.90;;;;;;5006141;28;43471;-64
2022/01/31 06:34:09;;;;;;;3.85;1.80;;;20.00;41.80;;;;;;5022190;28;43591;-64
2022/01/31 06:36:37;;;;;;;5.28;2.17;;;20.00;41.80;;;;;;5022253;28;44732;-63
2022/01/31 06:39:05;;;;;;;4.50;1.92;;;20.00;41.80;;;;;;5016585;28;43435;-63
2022/01/31 06:41:32;;;;;;;3.03;1.80;;;20.00;41.90;;;;;;5023833;28;43551;-63
2022/01/31 06:43:59;;;;;;;3.80;2.30;;;20.00;41.80;;;;;;5022448;28;43484;-63
2022/01/31 06:46:27;;;;;;;4.18;2.08;;;20.00;41.90;;;;;;5013042;28;44686;-62
2022/01/31 06:48:56;;;;;;;4.32;2.00;;;20.00;41.90;;;;;;5000571;28;43540;-63
2022/01/31 06:51:23;;;;;;;4.28;1.90;;;20.00;41.90;;;;;;5020695;28;43598;-63
2022/01/31 06:53:55;;;;;;;3.45;1.80;;;20.00;41.90;;;;;;5022221;28;43457;-62
2022/01/31 06:56:29;;;;;;;3.78;1.65;;;19.90;42.00;;;;;;5014306;28;45029;-63
2022/01/31 06:58:58;;;;;;;3.45;1.80;;;20.00;42.00;;;;;;5019703;28;43501;-63
2022/01/31 07:01:25;;;;;;;3.83;1.85;;;19.90;42.00;;;;;;5016949;28;43484;-62
2022/01/31 07:03:55;;;;;;;2.28;1.45;;;19.90;42.00;;;;;;5008933;28;43656;-63
2022/01/31 07:06:24;;;;;;;4.32;1.95;;;19.90;42.10;;;;;;5017529;28;45143;-63
2022/01/31 07:08:53;;;;;;;2.17;1.48;;;19.90;42.10;;;;;;5018160;28;43451;-62
2022/01/31 07:11:24;;;;;;;3.88;1.83;;;19.90;42.10;;;;;;5018046;28;43532;-64
2022/01/31 07:14:05;;;;;;;;;;;19.90;42.10;;;;;;5015560;28;43486;-62
2022/01/31 07:16:34;;;;;;;;;;;19.90;42.20;;;;;;5020831;28;44950;-62
2022/01/31 07:19:06;;;;;;;3.35;1.63;;;19.80;42.20;;;;;;5017138;28;43462;-63
2022/01/31 07:21:39;;;;;;;;;;;19.80;42.20;;;;;;5020082;28;43567;-63
2022/01/31 07:24:42;;;;;;;2.67;1.42;;;19.80;42.10;;;;;;5016680;28;43468;-62
2022/01/31 07:27:11;;;;;;;2.38;1.42;;;19.80;42.20;;;;;;5019148;28;45814;-64
2022/01/31 07:29:39;;;;;;;3.45;1.98;;;19.90;42.30;;;;;;5004495;28;45096;-63
2022/01/31 07:32:10;;;;;;;3.65;1.88;;;19.90;42.20;;;;;;5015020;28;43463;-63
2022/01/31 07:34:41;;;;;;;2.28;1.40;;;19.90;42.20;;;;;;5018561;28;43500;-63
2022/01/31 07:37:10;;;;;;;2.28;1.30;;;19.90;42.20;;;;;;5019401;28;44087;-62
2022/01/31 07:39:41;;;;;;;3.10;1.45;;;19.90;42.20;;;;;;5015374;28;43713;-63
2022/01/31 07:42:10;;;;;;;3.08;1.70;;;19.90;42.20;;;;;;5004133;28;43459;-61
2022/01/31 07:44:46;;;;;;;2.63;1.50;;;19.90;42.20;;;;;;5017780;28;43463;-64
2022/01/31 07:47:14;;;;;;;2.35;1.60;;;19.90;42.20;;;;;;5018004;28;44391;-63
2022/01/31 07:49:41;;;;;;;2.42;1.23;;;19.90;42.20;;;;;;5012610;28;43472;-63
2022/01/31 07:52:09;;;;;;;3.05;1.48;;;19.90;42.20;;;;;;5019774;28;43365;-63
2022/01/31 07:54:39;;;;;;;2.25;1.40;;;19.90;42.30;;;;;;5019390;28;43617;-63
2022/01/31 07:57:06;;;;;;;2.67;1.50;;;19.90;42.30;;;;;;5016210;28;44064;-62
2022/01/31 07:59:54;;;;;;;2.78;1.42;;;19.90;42.30;;;;;;5018649;28;43811;-63
2022/01/31 08:02:21;;;;;;;1.77;1.20;;;20.00;42.30;;;;;;5021321;28;43471;-64
2022/01/31 08:04:54;;;;;;;2.17;1.40;;;20.00;42.30;;;;;;5020313;28;43586;-63
2022/01/31 08:07:22;;;;;;;3.30;1.70;;;20.00;42.30;;;;;;5010166;28;43625;-62
2022/01/31 08:09:50;;;;;;;2.35;1.38;;;20.00;42.30;;;;;;5018377;28;43593;-63
2022/01/31 08:12:18;;;;;;;3.53;1.60;;;20.00;42.20;;;;;;5003055;28;43440;-63
2022/01/31 08:14:48;;;;;;;2.92;1.60;;;20.00;42.20;;;;;;5019136;28;43542;-64
2022/01/31 08:17:15;;;;;;;2.33;1.23;;;20.10;42.20;;;;;;5011364;28;44170;-62
2022/01/31 08:19:43;;;;;;;2.35;1.40;;;20.10;42.30;;;;;;5016256;28;43551;-62
2022/01/31 08:22:10;;;;;;;2.65;1.38;;;20.10;42.30;;;;;;5019315;28;43531;-63
2022/01/31 08:24:38;;;;;;;3.47;1.90;;;20.10;42.30;;;;;;5018233;28;43528;-64
2022/01/31 08:27:05;;;;;;;3.88;2.10;;;20.10;42.30;;;;;;5017192;28;43573;-64
2022/01/31 08:29:36;;;;;;;3.28;1.90;;;20.10;42.40;;;;;;5001780;28;43573;-62
2022/01/31 08:32:08;;;;;;;;;;;20.10;42.50;;;;;;5019321;28;43476;-64
2022/01/31 08:37:25;;;;;;;3.22;1.80;;;20.10;42.70;;;;;;5019221;28;43613;-64
2022/01/31 08:39:52;;;;;;;3.40;1.60;;;20.20;42.70;;;;;;5015704;28;43493;-64
2022/01/31 08:42:20;;;;;;;3.70;1.48;;;20.20;42.60;;;;;;5015487;28;43465;-62
2022/01/31 08:44:48;;;;;;;5.05;1.83;;;20.30;42.50;;;;;;5015797;28;43516;-62
2022/01/31 08:47:16;;;;;;;2.35;1.60;;;20.40;42.40;;;;;;5004294;28;45001;-63
2022/01/31 08:49:44;;;;;;;2.80;1.60;;;20.50;42.40;;;;;;5014978;28;43420;-63
2022/01/31 08:52:12;;;;;;;2.70;1.30;;;20.60;42.30;;;;;;5015686;28;43481;-62
2022/01/31 08:54:41;;;;;;;2.42;1.50;;;20.60;42.10;;;;;;5019688;28;43450;-63
2022/01/31 08:57:08;;;;;;;1.70;1.30;;;20.70;42.10;;;;;;5017131;28;44156;-62
2022/01/31 08:59:42;;;;;;;3.50;1.30;;;20.80;42.00;;;;;;5014790;28;43469;-64
2022/01/31 09:02:16;;;;;;;2.33;1.40;;;20.90;42.00;;;;;;5013197;28;43436;-63
2022/01/31 09:04:47;;;;;;;2.60;1.50;;;21.00;41.90;;;;;;5009294;28;43524;-64
2022/01/31 09:07:20;;;;;;;2.70;1.73;;;21.20;41.80;;;;;;5016921;28;44867;-63
2022/01/31 09:09:54;;;;;;;2.30;1.15;;;21.30;41.70;;;;;;5018600;28;43687;-62
2022/01/31 09:12:27;;;;;;;3.22;1.50;;;21.50;41.50;;;;;;5010939;28;43445;-63
2022/01/31 09:14:54;;;;;;;3.17;1.50;;;21.60;41.40;;;;;;5001845;28;43575;-65
2022/01/31 09:17:22;;;;;;;1.98;1.30;;;21.70;41.40;;;;;;5016423;28;43570;-64
2022/01/31 09:19:49;;;;;;;1.90;1.20;;;21.80;41.40;;;;;;5019916;28;43561;-64
2022/01/31 09:22:17;;;;;;;3.10;1.38;;;22.00;41.30;;;;;;5022717;28;43480;-66
2022/01/31 09:24:50;;;;;;;2.92;1.30;;;22.10;41.30;;;;;;5021483;28;43583;-63
2022/01/31 09:27:18;;;;;;;2.38;1.40;;;22.20;41.20;;;;;;5020655;28;45051;-64
2022/01/31 09:29:46;;;;;;;3.72;1.50;;;22.30;41.10;;;;;;5020957;28;43409;-65
2022/01/31 09:32:13;;;;;;;3.90;1.45;;;22.40;41.00;;;;;;5002065;28;43470;-64
2022/01/31 09:34:41;;;;;;;2.40;1.10;;;22.40;40.80;;;;;;5013681;28;44031;-64
2022/01/31 09:37:09;;;;;;;3.25;1.30;;;22.50;40.60;;;;;;5001833;28;44032;-68
2022/01/31 09:39:36;;;;;;;3.00;1.38;;;22.60;40.60;;;;;;5006072;28;45236;-64
2022/01/31 09:42:09;;;;;;;3.58;1.30;;;22.70;40.70;;;;;;5004939;28;43521;-65
2022/01/31 09:50:15;;;;;;;3.05;1.48;;;22.90;40.40;;;;;;4996877;28;43518;-65
2022/01/31 09:52:43;;;;;;;3.47;1.30;;;22.90;40.30;;;;;;5014937;28;43436;-65
2022/01/31 09:55:10;;;;;;;2.30;1.30;;;22.90;40.30;;;;;;5003883;28;43535;-65
2022/01/31 09:57:38;;;;;;;3.05;1.58;;;23.00;40.30;;;;;;5006683;28;44691;-65
2022/01/31 10:00:07;;;;;;;4.32;1.55;;;23.00;40.30;;;;;;5012098;28;43775;-65
2022/01/31 10:03:01;;;;;;;3.75;1.23;;;22.90;40.20;;;;;;5003818;28;43503;-65
2022/01/31 10:05:29;;;;;;;2.42;1.33;;;22.90;40.30;;;;;;5018047;28;44021;-65
2022/01/31 10:08:11;;;;;;;3.65;1.20;;;23.00;40.40;;;;;;5020088;28;43805;-65
2022/01/31 10:10:41;;;;;;;2.22;1.30;;;23.00;40.40;;;;;;5022323;28;43432;-65
2022/01/31 10:16:29;;;;;;;3.33;1.20;;;23.00;40.30;;;;;;5022541;28;43647;-65
2022/01/31 10:19:08;;;;;;;2.42;1.33;;;23.00;40.40;;;;;;5021308;28;45065;-65
2022/01/31 10:21:57;;;;;;;2.47;1.45;;;23.00;40.40;;;;;;5018308;28;44920;-66
2022/01/31 10:24:27;;;;;;;1.80;1.10;;;23.00;40.40;;;;;;5020874;28;43602;-65
2022/01/31 10:26:55;;;;;;;2.35;1.20;;;23.00;40.40;;;;;;5016502;28;43503;-65
2022/01/31 10:29:24;;;;;;;2.08;1.50;;;23.00;40.50;;;;;;5004606;28;43949;-65
2022/01/31 10:32:04;;;;;;;4.97;2.05;;;23.10;40.40;;;;;;5002064;28;44038;-65
2022/01/31 10:34:51;;;;;;;3.83;1.47;;;23.10;40.30;;;;;;5021673;28;43467;-65
2022/01/31 10:37:22;;;;;;;1.85;1.20;;;23.10;40.40;;;;;;5023022;28;43611;-65
2022/01/31 10:54:11;;;;;;;2.72;1.50;;;23.10;40.50;;;;;;5013977;28;43797;-66
2022/01/31 10:57:14;;;;;;;2.90;1.80;;;23.10;40.60;;;;;;5004444;28;43585;-66
2022/01/31 10:59:48;;;;;;;3.88;1.63;;;23.10;40.50;;;;;;5004023;28;43487;-65
2022/01/31 11:02:19;;;;;;;5.05;1.77;;;23.10;40.60;;;;;;5014254;28;43801;-66
2022/01/31 11:04:50;;;;;;;5.45;1.65;;;23.10;40.60;;;;;;5018882;28;43455;-64
2022/01/31 11:07:25;;;;;;;6.63;1.73;;;23.10;40.60;;;;;;5017303;28;43587;-65
2022/01/31 11:09:54;;;;;;;4.68;1.80;;;23.20;40.60;;;;;;5004842;28;43583;-64
2022/01/31 11:12:23;;;;;;;3.72;1.90;;;23.10;40.60;;;;;;5003958;28;43867;-65
2022/01/31 11:14:54;;;;;;;2.53;1.50;;;23.20;40.70;;;;;;5004005;28;44626;-64
2022/01/31 11:17:24;;;;;;;3.40;1.77;;;23.20;40.70;;;;;;5015936;28;43478;-65
2022/01/31 11:19:57;;;;;;;3.15;1.52;;;23.20;40.70;;;;;;5002053;28;43580;-65
2022/01/31 11:22:31;;;;;;;4.00;1.75;;;23.20;40.70;;;;;;5015814;28;44025;-64
2022/01/31 11:25:18;;;;;;;3.40;1.45;;;23.20;40.70;;;;;;5008335;28;43996;-66
2022/01/31 11:28:01;;;;;;;4.43;1.85;;;23.20;40.70;;;;;;5003200;28;43464;-65
2022/01/31 11:30:30;;;;;;;4.22;1.42;;;23.20;40.70;;;;;;5002914;28;43575;-66
2022/01/31 11:32:58;;;;;;;4.63;1.90;;;23.20;40.70;;;;;;5003609;28;43839;-65
2022/01/31 11:35:26;;;;;;;3.00;1.45;;;23.20;40.70;;;;;;4998934;28;43464;-65
2022/01/31 11:37:53;;;;;;;3.88;1.67;;;23.30;40.70;;;;;;5019988;28;43488;-65
2022/01/31 11:40:22;;;;;;;4.03;1.55;;;23.30;40.80;;;;;;5006117;28;43589;-65
2022/01/31 11:42:51;;;;;;;5.05;1.73;;;23.30;40.70;;;;;;5018108;28;44277;-65
2022/01/31 11:45:29;;;;;;;4.93;1.90;;;23.30;40.80;;;;;;4985717;28;45062;-65
2022/01/31 11:47:58;;;;;;;5.38;2.25;;;23.30;40.70;;;;;;5004121;28;43550;-65
2022/01/31 11:50:26;;;;;;;4.22;1.80;;;23.30;40.90;;;;;;5018122;28;43534;-66
2022/01/31 11:52:58;;;;;;;5.65;2.20;;;23.30;40.80;;;;;;4998473;28;43902;-65
2022/01/31 11:55:36;;;;;;;4.80;2.10;;;23.30;40.80;;;;;;5012770;28;43747;-65
2022/01/31 11:58:15;;;;;;;4.38;1.73;;;23.20;40.80;;;;;;4989728;28;43519;-65
2022/01/31 12:00:44;;;;;;;3.67;1.65;;;23.20;40.70;;;;;;5012682;28;43441;-65
2022/01/31 12:03:16;;;;;;;4.63;1.98;;;23.30;40.80;;;;;;5019759;28;44980;-65
2022/01/31 12:05:45;;;;;;;4.55;2.00;;;23.30;40.80;;;;;;5002487;28;43480;-65
2022/01/31 12:08:22;;;;;;;3.88;1.98;;;23.30;40.80;;;;;;5019861;28;43535;-65
2022/01/31 12:10:52;;;;;;;3.28;1.80;;;23.40;40.90;;;;;;4999676;28;43577;-65
2022/01/31 12:13:41;;;;;;;4.85;2.08;;;23.30;40.70;;;;;;5000923;28;44197;-65
2022/01/31 12:16:58;;;;;;;4.07;2.05;;;23.30;40.90;;;;;;4998866;28;43473;-66
2022/01/31 12:22:27;;;;;;;6.30;2.00;;;23.40;40.90;;;;;;5002760;28;44020;-66
2022/01/31 12:24:55;;;;;;;4.03;1.88;;;23.40;40.90;;;;;;5014241;28;44232;-66
2022/01/31 12:27:29;;;;;;;5.43;2.10;;;23.40;40.90;;;;;;5005453;28;43506;-66
2022/01/31 12:30:00;;;;;;;3.13;1.95;;;23.30;40.80;;;;;;5000418;28;43530;-66
2022/01/31 12:32:36;;;;;;;5.72;2.05;;;23.40;41.00;;;;;;4987298;28;44041;-65
2022/01/31 12:35:06;;;;;;;5.72;2.20;;;23.40;41.10;;;;;;5001728;28;43795;-65
2022/01/31 12:37:38;;;;;;;3.72;2.00;;;23.40;41.00;;;;;;4999752;28;44327;-65
2022/01/31 12:40:27;;;;;;;5.80;2.25;;;23.40;41.00;;;;;;4999689;28;43564;-66
2022/01/31 12:45:30;;;;;;;4.70;2.17;;;23.40;41.00;;;;;;5016535;28;43928;-65
2022/01/31 12:48:10;;;;;;;5.60;2.17;;;23.30;41.00;;;;;;4985826;28;43629;-66
2022/01/31 12:50:40;;;;;;;4.72;2.17;;;23.30;41.00;;;;;;5001973;28;43483;-65
2022/01/31 12:53:22;;;;;;;5.20;2.05;;;23.30;41.00;;;;;;4983470;28;43624;-65
2022/01/31 12:56:09;;;;;;;3.67;1.88;;;23.30;41.00;;;;;;5003278;28;44072;-65
2022/01/31 12:59:02;;;;;;;3.92;1.95;;;23.30;41.00;;;;;;5019665;28;43996;-66
2022/01/31 13:01:35;;;;;;;3.63;1.92;;;23.30;41.00;;;;;;5020232;28;43468;-65
2022/01/31 13:04:04;;;;;;;4.30;2.10;;;23.30;41.00;;;;;;4997818;28;43512;-66
2022/01/31 13:06:34;;;;;;;5.00;2.25;;;23.30;41.00;;;;;;4997346;28;43694;-66
2022/01/31 13:09:12;;;;;;;4.32;1.95;;;23.30;41.00;;;;;;5002100;28;43524;-66
2022/01/31 13:11:42;;;;;;;4.43;2.17;;;23.30;41.00;;;;;;5016035;28;43555;-66
2022/01/31 13:14:17;;;;;;;6.78;2.70;;;23.20;40.90;;;;;;5011697;28;43495;-65
2022/01/31 13:17:11;;;;;;;5.72;2.17;;;23.20;40.90;;;;;;5014784;28;43951;-65
2022/01/31 13:19:41;;;;;;;5.30;2.30;;;23.30;41.00;;;;;;5004675;28;44060;-66
2022/01/31 13:22:13;;;;;;;5.38;2.45;;;23.20;40.90;;;;;;5012203;28;43416;-66
2022/01/31 13:24:47;;;;;;;5.05;2.47;;;23.20;41.00;;;;;;5001175;28;43585;-66
2022/01/31 13:27:17;;;;;;;5.82;2.33;;;23.20;41.00;;;;;;5000025;28;43914;-66
2022/01/31 13:30:06;;;;;;;6.13;2.35;;;23.20;40.90;;;;;;5003113;28;43540;-65
2022/01/31 13:32:36;;;;;;;5.88;2.20;;;23.20;40.90;;;;;;5005754;28;43991;-65
2022/01/31 13:35:14;;;;;;;6.20;2.55;;;23.20;40.90;;;;;;5011158;28;44067;-65
2022/01/31 13:37:42;;;;;;;5.32;2.15;;;23.20;40.90;;;;;;4996200;28;43637;-65
2022/01/31 13:40:33;;;;;;;5.03;2.42;;;23.20;40.90;;;;;;5018337;28;43536;-65